createdAt,value
2022-09-13T00:00:13.921Z,14.02
2022-09-13T00:01:13.971Z,14.06
2022-09-13T00:02:13.907Z,14.07
2022-09-13T00:03:13.891Z,14.09
2022-09-13T00:04:13.918Z,14.14
2022-09-13T00:05:13.822Z,14.07
2022-09-13T00:06:13.829Z,14.10
2022-09-13T00:07:13.776Z,14.09
2022-09-13T00:08:13.771Z,13.96
2022-09-13T00:09:13.756Z,13.87
2022-09-13T00:10:13.740Z,13.92
2022-09-13T00:11:13.682Z,13.92
2022-09-13T00:12:13.661Z,13.91
2022-09-13T00:13:13.695Z,13.84
2022-09-13T00:14:13.662Z,13.76
2022-09-13T00:15:13.616Z,13.76
2022-09-13T00:16:13.702Z,13.79
2022-09-13T00:17:13.611Z,13.63
2022-09-13T00:18:13.572Z,13.65
2022-09-13T00:19:13.551Z,13.67
2022-09-13T00:20:13.739Z,13.63
2022-09-13T00:21:13.526Z,13.58
2022-09-13T00:22:13.483Z,13.61
2022-09-13T00:23:13.472Z,13.55
2022-09-13T00:24:13.463Z,13.59
2022-09-13T00:25:13.416Z,13.58
2022-09-13T00:26:13.415Z,13.47
2022-09-13T00:27:13.360Z,13.58
2022-09-13T00:28:13.332Z,13.69
2022-09-13T00:29:13.305Z,13.67
2022-09-13T00:30:13.281Z,13.67
2022-09-13T00:31:13.305Z,13.69
2022-09-13T00:32:13.259Z,13.62
2022-09-13T00:33:13.257Z,13.54
2022-09-13T00:34:13.201Z,13.47
2022-09-13T00:35:13.196Z,13.52
2022-09-13T00:36:13.167Z,13.51
2022-09-13T00:37:13.129Z,13.54
2022-09-13T00:38:13.103Z,13.54
2022-09-13T00:39:13.086Z,13.54
2022-09-13T00:40:13.132Z,13.43
2022-09-13T00:41:13.041Z,13.52
2022-09-13T00:42:13.024Z,13.47
2022-09-13T00:43:12.993Z,13.54
2022-09-13T00:44:12.976Z,13.56
2022-09-13T00:45:12.953Z,13.49
2022-09-13T00:46:13.010Z,13.49
2022-09-13T00:47:12.911Z,13.47
2022-09-13T00:48:12.927Z,13.49
2022-09-13T00:49:12.882Z,13.54
2022-09-13T00:50:12.911Z,13.58
2022-09-13T00:51:12.880Z,13.67
2022-09-13T00:52:12.849Z,13.73
2022-09-13T00:53:12.823Z,13.65
2022-09-13T00:54:12.808Z,13.65
2022-09-13T00:55:12.749Z,13.56
2022-09-13T00:56:12.754Z,13.52
2022-09-13T00:57:12.756Z,13.49
2022-09-13T00:58:12.707Z,13.44
2022-09-13T00:59:12.652Z,13.32
2022-09-13T01:00:12.689Z,13.30
2022-09-13T01:01:12.623Z,13.40
2022-09-13T01:02:12.648Z,13.33
2022-09-13T01:03:12.630Z,13.22
2022-09-13T01:04:12.983Z,13.27
2022-09-13T01:05:12.524Z,13.27
2022-09-13T01:06:12.500Z,13.15
2022-09-13T01:07:12.487Z,13.15
2022-09-13T01:08:12.537Z,13.02
2022-09-13T01:09:12.437Z,13.02
2022-09-13T01:10:12.406Z,13.03
2022-09-13T01:11:12.395Z,13.07
2022-09-13T01:12:12.363Z,13.04
2022-09-13T01:13:12.345Z,13.04
2022-09-13T01:14:12.318Z,12.97
2022-09-13T01:15:12.303Z,12.99
2022-09-13T01:16:12.308Z,12.97
2022-09-13T01:17:12.281Z,13.00
2022-09-13T01:18:12.231Z,13.02
2022-09-13T01:19:12.212Z,13.11
2022-09-13T01:20:12.186Z,13.18
2022-09-13T01:21:12.218Z,13.09
2022-09-13T01:22:12.165Z,13.03
2022-09-13T01:23:12.176Z,13.09
2022-09-13T01:24:12.110Z,13.03
2022-09-13T01:25:12.090Z,12.93
2022-09-13T01:26:12.074Z,12.99
2022-09-13T01:27:12.144Z,12.89
2022-09-13T01:28:12.035Z,12.85
2022-09-13T01:29:11.998Z,12.89
2022-09-13T01:30:11.967Z,12.95
2022-09-13T01:31:12.065Z,12.92
2022-09-13T01:32:11.923Z,12.95
2022-09-13T01:33:11.900Z,12.89
2022-09-13T01:34:11.884Z,12.96
2022-09-13T01:35:11.858Z,12.92
2022-09-13T01:36:11.835Z,12.96
2022-09-13T01:37:11.812Z,12.79
2022-09-13T01:38:11.793Z,12.84
2022-09-13T01:39:11.771Z,12.81
2022-09-13T01:40:11.916Z,12.75
2022-09-13T01:41:11.771Z,12.64
2022-09-13T01:42:11.714Z,12.79
2022-09-13T01:43:11.678Z,12.81
2022-09-13T01:44:11.661Z,12.79
2022-09-13T01:45:11.638Z,12.85
2022-09-13T01:46:11.670Z,12.84
2022-09-13T01:47:11.600Z,12.88
2022-09-13T01:48:11.571Z,12.96
2022-09-13T01:49:11.555Z,12.95
2022-09-13T01:50:11.533Z,12.89
2022-09-13T01:51:11.533Z,12.97
2022-09-13T01:52:11.515Z,12.85
2022-09-13T01:53:11.497Z,12.85
2022-09-13T01:54:11.452Z,12.84
2022-09-13T01:55:11.421Z,12.85
2022-09-13T01:56:11.403Z,12.85
2022-09-13T01:57:11.377Z,12.84
2022-09-13T01:58:11.352Z,12.81
2022-09-13T01:59:11.330Z,12.79
2022-09-13T02:00:11.307Z,12.82
2022-09-13T02:01:11.308Z,12.79
2022-09-13T02:02:11.369Z,12.92
2022-09-13T02:03:11.301Z,12.93
2022-09-13T02:04:11.240Z,13.02
2022-09-13T02:05:11.228Z,13.09
2022-09-13T02:06:11.174Z,13.14
2022-09-13T02:07:11.150Z,13.17
2022-09-13T02:08:11.135Z,13.20
2022-09-13T02:09:11.105Z,13.20
2022-09-13T02:10:11.097Z,13.12
2022-09-13T02:11:11.066Z,13.20
2022-09-13T02:12:11.051Z,13.22
2022-09-13T02:13:11.017Z,13.15
2022-09-13T02:14:11.000Z,13.22
2022-09-13T02:15:10.974Z,13.22
2022-09-13T02:16:11.021Z,13.24
2022-09-13T02:17:10.946Z,13.38
2022-09-13T02:18:10.931Z,13.30
2022-09-13T02:19:10.926Z,13.25
2022-09-13T02:20:10.915Z,13.24
2022-09-13T02:21:10.878Z,13.18
2022-09-13T02:22:10.846Z,13.09
2022-09-13T02:23:10.840Z,13.06
2022-09-13T02:24:10.846Z,12.95
2022-09-13T02:25:10.788Z,13.04
2022-09-13T02:26:10.749Z,13.09
2022-09-13T02:27:10.715Z,13.15
2022-09-13T02:28:10.775Z,13.27
2022-09-13T02:29:10.718Z,13.25
2022-09-13T02:30:10.694Z,13.15
2022-09-13T02:31:10.699Z,13.17
2022-09-13T02:32:10.609Z,13.03
2022-09-13T02:33:10.587Z,13.03
2022-09-13T02:34:10.554Z,12.78
2022-09-13T02:35:10.531Z,12.99
2022-09-13T02:36:10.516Z,12.79
2022-09-13T02:37:10.497Z,12.87
2022-09-13T02:38:10.466Z,12.81
2022-09-13T02:39:10.450Z,12.82
2022-09-13T02:40:10.491Z,12.82
2022-09-13T02:41:10.426Z,12.88
2022-09-13T02:42:12.420Z,12.87
2022-09-13T02:43:10.356Z,12.97
2022-09-13T02:44:10.384Z,13.04
2022-09-13T02:45:10.317Z,12.92
2022-09-13T02:46:10.350Z,12.88
2022-09-13T02:47:10.274Z,12.96
2022-09-13T02:48:10.296Z,12.85
2022-09-13T02:49:10.272Z,12.92
2022-09-13T02:50:10.210Z,12.82
2022-09-13T02:51:10.180Z,12.81
2022-09-13T02:52:10.161Z,12.67
2022-09-13T02:53:10.139Z,12.75
2022-09-13T02:54:10.115Z,12.66
2022-09-13T02:55:10.091Z,12.66
2022-09-13T02:56:10.086Z,12.62
2022-09-13T02:57:10.051Z,12.59
2022-09-13T02:58:10.025Z,12.51
2022-09-13T02:59:10.005Z,12.67
2022-09-13T03:00:09.980Z,12.71
2022-09-13T03:01:10.029Z,12.85
2022-09-13T03:02:10.014Z,12.88
2022-09-13T03:03:09.979Z,12.88
2022-09-13T03:04:09.938Z,12.81
2022-09-13T03:05:09.921Z,12.96
2022-09-13T03:06:09.880Z,12.79
2022-09-13T03:07:09.829Z,12.89
2022-09-13T03:08:09.877Z,12.88
2022-09-13T03:09:09.778Z,12.89
2022-09-13T03:10:09.761Z,12.93
2022-09-13T03:11:09.737Z,12.99
2022-09-13T03:12:09.735Z,12.88
2022-09-13T03:13:09.689Z,12.85
2022-09-13T03:14:09.693Z,12.88
2022-09-13T03:15:09.689Z,13.00
2022-09-13T03:16:09.718Z,12.85
2022-09-13T03:17:09.640Z,12.82
2022-09-13T03:18:09.642Z,12.82
2022-09-13T03:19:09.578Z,12.82
2022-09-13T03:20:09.547Z,12.87
2022-09-13T03:21:09.518Z,12.87
2022-09-13T03:22:09.497Z,12.82
2022-09-13T03:23:09.474Z,12.81
2022-09-13T03:24:09.452Z,12.71
2022-09-13T03:25:09.433Z,12.77
2022-09-13T03:26:09.405Z,12.74
2022-09-13T03:27:09.378Z,12.74
2022-09-13T03:28:09.393Z,12.71
2022-09-13T03:29:09.338Z,12.77
2022-09-13T03:30:09.315Z,12.67
2022-09-13T03:31:09.301Z,12.67
2022-09-13T03:32:09.441Z,12.57
2022-09-13T03:33:09.264Z,12.66
2022-09-13T03:34:09.225Z,12.52
2022-09-13T03:35:09.213Z,12.62
2022-09-13T03:36:09.181Z,12.77
2022-09-13T03:37:09.184Z,12.87
2022-09-13T03:38:09.135Z,12.81
2022-09-13T03:39:13.114Z,12.85
2022-09-13T03:40:09.141Z,12.88
2022-09-13T03:41:09.071Z,12.81
2022-09-13T03:42:09.053Z,12.82
2022-09-13T03:43:09.030Z,12.93
2022-09-13T03:44:09.007Z,12.87
2022-09-13T03:45:09.003Z,12.88
2022-09-13T03:46:09.076Z,12.89
2022-09-13T03:47:08.940Z,12.95
2022-09-13T03:48:09.016Z,12.88
2022-09-13T03:49:08.894Z,12.88
2022-09-13T03:50:08.875Z,12.82
2022-09-13T03:51:08.849Z,12.88
2022-09-13T03:52:08.861Z,12.84
2022-09-13T03:53:08.804Z,12.85
2022-09-13T03:54:08.782Z,12.88
2022-09-13T03:55:08.765Z,12.84
2022-09-13T03:56:08.739Z,12.96
2022-09-13T03:57:08.719Z,13.06
2022-09-13T03:58:08.697Z,13.17
2022-09-13T03:59:08.671Z,13.24
2022-09-13T04:00:08.653Z,13.32
2022-09-13T04:01:08.668Z,13.36
2022-09-13T04:02:08.731Z,13.49
2022-09-13T04:03:08.611Z,13.47
2022-09-13T04:04:08.646Z,13.43
2022-09-13T04:05:08.540Z,13.46
2022-09-13T04:06:08.520Z,13.56
2022-09-13T04:07:08.498Z,13.44
2022-09-13T04:08:08.509Z,13.54
2022-09-13T04:09:08.459Z,13.49
2022-09-13T04:10:13.022Z,13.51
2022-09-13T04:11:08.420Z,13.49
2022-09-13T04:12:08.386Z,13.52
2022-09-13T04:13:08.364Z,13.44
2022-09-13T04:14:08.391Z,13.46
2022-09-13T04:15:08.380Z,13.41
2022-09-13T04:16:08.393Z,13.40
2022-09-13T04:17:08.389Z,13.40
2022-09-13T04:18:08.441Z,13.33
2022-09-13T04:19:08.279Z,13.32
2022-09-13T04:20:08.244Z,13.32
2022-09-13T04:21:08.344Z,13.37
2022-09-13T04:22:08.198Z,13.41
2022-09-13T04:23:08.147Z,13.38
2022-09-13T04:24:08.136Z,13.37
2022-09-13T04:25:08.103Z,13.36
2022-09-13T04:26:08.106Z,13.40
2022-09-13T04:27:08.063Z,13.41
2022-09-13T04:28:08.072Z,13.33
2022-09-13T04:29:08.041Z,13.40
2022-09-13T04:30:07.994Z,13.38
2022-09-13T04:31:08.039Z,13.38
2022-09-13T04:32:07.956Z,13.38
2022-09-13T04:33:07.935Z,13.30
2022-09-13T04:34:07.911Z,13.29
2022-09-13T04:35:07.901Z,13.36
2022-09-13T04:36:07.865Z,13.25
2022-09-13T04:37:07.842Z,13.27
2022-09-13T04:38:07.824Z,13.24
2022-09-13T04:39:07.821Z,13.22
2022-09-13T04:40:07.833Z,13.22
2022-09-13T04:41:07.761Z,13.25
2022-09-13T04:42:07.738Z,13.25
2022-09-13T04:43:07.749Z,13.18
2022-09-13T04:44:07.692Z,13.22
2022-09-13T04:45:07.673Z,13.27
2022-09-13T04:46:07.693Z,13.22
2022-09-13T04:47:07.627Z,13.29
2022-09-13T04:48:07.603Z,13.18
2022-09-13T04:49:07.583Z,13.33
2022-09-13T04:50:07.574Z,13.29
2022-09-13T04:51:07.543Z,13.33
2022-09-13T04:52:07.520Z,13.29
2022-09-13T04:53:07.498Z,13.32
2022-09-13T04:54:09.938Z,13.40
2022-09-13T04:55:07.455Z,13.25
2022-09-13T04:56:07.434Z,13.33
2022-09-13T04:57:07.409Z,13.29
2022-09-13T04:58:07.391Z,13.29
2022-09-13T04:59:07.365Z,13.20
2022-09-13T05:00:07.345Z,13.27
2022-09-13T05:01:07.364Z,13.30
2022-09-13T05:02:07.354Z,13.33
2022-09-13T05:03:07.276Z,13.33
2022-09-13T05:04:07.265Z,13.36
2022-09-13T05:05:07.239Z,13.38
2022-09-13T05:06:07.218Z,13.30
2022-09-13T05:07:07.207Z,13.37
2022-09-13T05:08:07.181Z,13.40
2022-09-13T05:09:07.149Z,13.43
2022-09-13T05:10:07.129Z,13.38
2022-09-13T05:11:07.117Z,13.47
2022-09-13T05:12:07.086Z,13.51
2022-09-13T05:13:07.061Z,13.54
2022-09-13T05:14:07.045Z,13.52
2022-09-13T05:15:07.041Z,13.54
2022-09-13T05:16:07.073Z,13.65
2022-09-13T05:17:06.996Z,13.63
2022-09-13T05:18:06.962Z,13.76
2022-09-13T05:19:06.940Z,13.79
2022-09-13T05:20:06.911Z,13.79
2022-09-13T05:21:06.904Z,13.71
2022-09-13T05:22:06.866Z,13.77
2022-09-13T05:23:06.854Z,13.76
2022-09-13T05:24:06.845Z,13.73
2022-09-13T05:25:06.805Z,13.77
2022-09-13T05:26:06.785Z,13.73
2022-09-13T05:27:06.759Z,13.80
2022-09-13T05:28:06.743Z,13.80
2022-09-13T05:29:06.732Z,13.81
2022-09-13T05:30:06.703Z,13.74
2022-09-13T05:31:06.710Z,13.81
2022-09-13T05:32:06.671Z,13.89
2022-09-13T05:33:06.638Z,13.96
2022-09-13T05:34:06.637Z,13.83
2022-09-13T05:35:06.590Z,13.91
2022-09-13T05:36:06.567Z,14.01
2022-09-13T05:37:06.626Z,13.99
2022-09-13T05:38:06.584Z,14.10
2022-09-13T05:39:29.266Z,14.07
2022-09-13T05:40:13.764Z,14.12
2022-09-13T05:41:06.466Z,14.14
2022-09-13T05:42:06.435Z,14.13
2022-09-13T05:43:06.421Z,14.14
2022-09-13T05:44:12.896Z,14.17
2022-09-13T05:45:06.379Z,14.24
2022-09-13T05:46:06.400Z,14.28
2022-09-13T05:47:06.337Z,14.32
2022-09-13T05:48:06.316Z,14.32
2022-09-13T05:49:06.295Z,14.32
2022-09-13T05:50:11.799Z,14.35
2022-09-13T05:51:06.251Z,14.38
2022-09-13T05:52:06.228Z,14.24
2022-09-13T05:53:06.207Z,14.37
2022-09-13T05:54:06.194Z,14.43
2022-09-13T05:55:06.162Z,14.39
2022-09-13T05:56:06.147Z,14.38
2022-09-13T05:57:06.192Z,14.37
2022-09-13T05:58:06.105Z,14.46
2022-09-13T05:59:06.089Z,14.42
2022-09-13T06:00:06.070Z,14.44
2022-09-13T06:01:06.052Z,14.50
2022-09-13T06:02:06.073Z,14.52
2022-09-13T06:03:06.002Z,14.60
2022-09-13T06:04:05.984Z,14.62
2022-09-13T06:05:05.953Z,14.60
2022-09-13T06:06:05.944Z,14.67
2022-09-13T06:07:05.915Z,14.71
2022-09-13T06:08:05.901Z,14.74
2022-09-13T06:09:05.875Z,14.68
2022-09-13T06:10:05.854Z,14.71
2022-09-13T06:11:05.832Z,14.84
2022-09-13T06:12:05.896Z,14.83
2022-09-13T06:13:05.864Z,14.75
2022-09-13T06:14:05.764Z,14.90
2022-09-13T06:15:05.766Z,14.99
2022-09-13T06:16:05.772Z,15.02
2022-09-13T06:17:05.710Z,15.09
2022-09-13T06:18:05.689Z,15.13
2022-09-13T06:19:05.695Z,15.15
2022-09-13T06:20:05.669Z,15.13
2022-09-13T06:21:05.626Z,15.26
2022-09-13T06:22:05.608Z,15.20
2022-09-13T06:23:05.594Z,15.24
2022-09-13T06:24:05.564Z,15.30
2022-09-13T06:25:05.550Z,15.21
2022-09-13T06:26:05.524Z,15.23
2022-09-13T06:27:05.512Z,15.23
2022-09-13T06:28:05.571Z,15.33
2022-09-13T06:29:05.470Z,15.39
2022-09-13T06:30:05.440Z,15.43
2022-09-13T06:31:05.473Z,15.48
2022-09-13T06:32:05.410Z,15.60
2022-09-13T06:33:05.402Z,15.52
2022-09-13T06:34:05.372Z,15.57
2022-09-13T06:35:05.349Z,15.49
2022-09-13T06:36:05.326Z,15.52
2022-09-13T06:37:05.311Z,15.49
2022-09-13T06:38:05.293Z,15.57
2022-09-13T06:39:05.264Z,15.57
2022-09-13T06:40:05.305Z,15.66
2022-09-13T06:41:05.223Z,15.68
2022-09-13T06:42:05.214Z,15.78
2022-09-13T06:43:05.191Z,15.81
2022-09-13T06:44:05.254Z,15.74
2022-09-13T06:45:05.147Z,15.82
2022-09-13T06:46:05.192Z,15.88
2022-09-13T06:47:05.119Z,15.84
2022-09-13T06:48:05.112Z,15.92
2022-09-13T06:49:05.073Z,15.92
2022-09-13T06:50:05.103Z,15.89
2022-09-13T06:51:05.032Z,15.84
2022-09-13T06:52:05.046Z,15.88
2022-09-13T06:53:04.997Z,16.00
2022-09-13T06:54:04.977Z,15.94
2022-09-13T06:55:06.710Z,16.04
2022-09-13T06:56:04.946Z,16.06
2022-09-13T06:57:04.920Z,16.07
2022-09-13T06:58:04.892Z,16.15
2022-09-13T06:59:04.900Z,16.09
2022-09-13T07:00:04.867Z,16.11
2022-09-13T07:01:04.909Z,16.14
2022-09-13T07:02:04.903Z,16.11
2022-09-13T07:03:04.804Z,16.15
2022-09-13T07:04:04.795Z,16.14
2022-09-13T07:05:04.759Z,16.25
2022-09-13T07:06:04.740Z,16.06
2022-09-13T07:07:04.720Z,16.23
2022-09-13T07:08:04.703Z,16.26
2022-09-13T07:09:04.685Z,16.27
2022-09-13T07:10:04.687Z,16.26
2022-09-13T07:11:04.653Z,16.37
2022-09-13T07:12:04.629Z,16.34
2022-09-13T07:13:04.611Z,16.27
2022-09-13T07:14:04.589Z,16.27
2022-09-13T07:15:04.569Z,16.35
2022-09-13T07:16:04.624Z,16.44
2022-09-13T07:17:04.552Z,16.50
2022-09-13T07:18:04.507Z,16.58
2022-09-13T07:19:04.501Z,16.67
2022-09-13T07:20:04.466Z,16.71
2022-09-13T07:21:04.460Z,16.77
2022-09-13T07:22:04.442Z,16.81
2022-09-13T07:23:04.412Z,16.81
2022-09-13T07:24:04.404Z,16.78
2022-09-13T07:25:04.386Z,16.81
2022-09-13T07:26:04.355Z,16.86
2022-09-13T07:27:04.361Z,16.90
2022-09-13T07:28:04.332Z,16.96
2022-09-13T07:29:04.316Z,17.03
2022-09-13T07:30:04.294Z,17.03
2022-09-13T07:31:04.322Z,17.13
2022-09-13T07:32:04.278Z,17.26
2022-09-13T07:33:04.226Z,17.30
2022-09-13T07:34:04.204Z,17.41
2022-09-13T07:35:04.280Z,17.41
2022-09-13T07:36:04.205Z,17.40
2022-09-13T07:37:04.165Z,17.41
2022-09-13T07:38:04.146Z,17.44
2022-09-13T07:39:04.119Z,17.54
2022-09-13T07:40:04.141Z,17.53
2022-09-13T07:41:04.086Z,17.66
2022-09-13T07:42:04.066Z,17.55
2022-09-13T07:43:04.046Z,17.62
2022-09-13T07:44:04.026Z,17.64
2022-09-13T07:45:04.016Z,17.74
2022-09-13T07:46:04.021Z,17.73
2022-09-13T07:47:03.977Z,17.88
2022-09-13T07:48:04.050Z,17.71
2022-09-13T07:49:03.943Z,17.73
2022-09-13T07:50:03.929Z,17.84
2022-09-13T07:51:03.925Z,17.85
2022-09-13T07:52:03.919Z,17.99
2022-09-13T07:53:03.876Z,18.02
2022-09-13T07:54:03.864Z,18.02
2022-09-13T07:55:03.835Z,17.92
2022-09-13T07:56:03.824Z,18.07
2022-09-13T07:57:03.809Z,18.00
2022-09-13T07:58:03.783Z,18.03
2022-09-13T07:59:03.769Z,18.13
2022-09-13T08:00:03.747Z,18.17
2022-09-13T08:01:03.772Z,18.24
2022-09-13T08:02:03.824Z,18.18
2022-09-13T08:03:03.697Z,18.25
2022-09-13T08:04:03.693Z,18.18
2022-09-13T08:05:03.662Z,18.15
2022-09-13T08:06:03.643Z,18.17
2022-09-13T08:07:03.630Z,18.18
2022-09-13T08:08:03.618Z,18.15
2022-09-13T08:09:03.607Z,18.06
2022-09-13T08:10:03.578Z,18.04
2022-09-13T08:11:03.560Z,18.07
2022-09-13T08:12:03.545Z,18.19
2022-09-13T08:13:03.529Z,18.27
2022-09-13T08:14:03.509Z,18.17
2022-09-13T08:15:03.498Z,18.06
2022-09-13T08:16:03.567Z,18.13
2022-09-13T08:17:03.457Z,18.25
2022-09-13T08:18:03.452Z,18.17
2022-09-13T08:19:03.429Z,18.18
2022-09-13T08:20:06.034Z,18.21
2022-09-13T08:21:03.395Z,18.15
2022-09-13T08:22:03.378Z,18.21
2022-09-13T08:23:03.351Z,18.28
2022-09-13T08:24:03.343Z,18.40
2022-09-13T08:25:03.334Z,18.39
2022-09-13T08:26:03.302Z,18.44
2022-09-13T08:27:03.319Z,18.46
2022-09-13T08:28:03.282Z,18.46
2022-09-13T08:29:03.250Z,18.59
2022-09-13T08:30:03.234Z,18.67
2022-09-13T08:31:03.237Z,18.70
2022-09-13T08:32:03.202Z,18.80
2022-09-13T08:33:03.185Z,18.97
2022-09-13T08:34:03.165Z,19.08
2022-09-13T08:35:03.146Z,19.20
2022-09-13T08:36:03.216Z,19.25
2022-09-13T08:37:03.114Z,19.38
2022-09-13T08:38:03.096Z,19.40
2022-09-13T08:39:03.091Z,19.36
2022-09-13T08:40:03.126Z,19.50
2022-09-13T08:41:03.051Z,19.63
2022-09-13T08:42:03.042Z,19.60
2022-09-13T08:43:03.019Z,19.58
2022-09-13T08:44:03.037Z,19.75
2022-09-13T08:45:02.991Z,19.86
2022-09-13T08:46:03.040Z,19.87
2022-09-13T08:47:02.965Z,19.88
2022-09-13T08:48:02.935Z,19.94
2022-09-13T08:49:02.921Z,19.93
2022-09-13T08:50:02.904Z,19.87
2022-09-13T08:51:02.892Z,19.88
2022-09-13T08:52:02.893Z,19.87
2022-09-13T08:53:02.863Z,19.86
2022-09-13T08:54:02.854Z,20.02
2022-09-13T08:55:02.858Z,20.02
2022-09-13T08:56:02.812Z,20.03
2022-09-13T08:57:02.815Z,20.05
2022-09-13T08:58:02.788Z,20.05
2022-09-13T08:59:02.764Z,20.15
2022-09-13T09:00:02.748Z,20.20
2022-09-13T09:01:02.808Z,20.15
2022-09-13T09:02:02.715Z,20.21
2022-09-13T09:03:02.714Z,20.39
2022-09-13T09:04:02.692Z,20.35
2022-09-13T09:05:02.681Z,20.42
2022-09-13T09:06:02.668Z,20.53
2022-09-13T09:07:02.651Z,20.54
2022-09-13T09:08:02.711Z,20.68
2022-09-13T09:09:02.613Z,20.74
2022-09-13T09:10:02.599Z,20.79
2022-09-13T09:11:02.584Z,20.69
2022-09-13T09:12:02.574Z,20.77
2022-09-13T09:13:02.559Z,20.83
2022-09-13T09:14:02.533Z,20.93
2022-09-13T09:15:02.532Z,20.90
2022-09-13T09:16:02.577Z,21.01
2022-09-13T09:17:02.494Z,20.99
2022-09-13T09:18:02.491Z,20.99
2022-09-13T09:19:02.467Z,20.99
2022-09-13T09:20:02.454Z,20.89
2022-09-13T09:21:02.437Z,20.80
2022-09-13T09:22:02.423Z,20.83
2022-09-13T09:23:02.413Z,20.72
2022-09-13T09:24:02.398Z,20.83
2022-09-13T09:25:02.375Z,20.81
2022-09-13T09:26:02.358Z,20.81
2022-09-13T09:27:02.367Z,20.72
2022-09-13T09:28:02.332Z,20.69
2022-09-13T09:29:02.335Z,20.65
2022-09-13T09:30:02.299Z,20.53
2022-09-13T09:31:02.334Z,20.31
2022-09-13T09:32:02.275Z,20.28
2022-09-13T09:33:02.253Z,20.12
2022-09-13T09:34:02.241Z,20.15
2022-09-13T09:35:02.228Z,20.02
2022-09-13T09:36:02.219Z,19.91
2022-09-13T09:37:02.199Z,19.97
2022-09-13T09:38:02.177Z,20.02
2022-09-13T09:39:02.169Z,20.15
2022-09-13T09:40:02.205Z,20.25
2022-09-13T09:41:02.133Z,20.23
2022-09-13T09:42:02.140Z,20.24
2022-09-13T09:43:02.103Z,20.34
2022-09-13T09:44:02.088Z,20.30
2022-09-13T09:45:02.069Z,20.24
2022-09-13T09:46:02.079Z,20.30
2022-09-13T09:47:02.036Z,20.27
2022-09-13T09:48:02.021Z,20.25
2022-09-13T09:49:02.017Z,20.24
2022-09-13T09:50:01.991Z,20.21
2022-09-13T09:51:01.991Z,20.20
2022-09-13T09:52:01.969Z,20.25
2022-09-13T09:53:01.946Z,20.30
2022-09-13T09:54:01.943Z,20.27
2022-09-13T09:55:01.924Z,20.24
2022-09-13T09:56:01.990Z,20.23
2022-09-13T09:57:01.897Z,20.18
2022-09-13T09:58:01.867Z,20.18
2022-09-13T09:59:01.859Z,20.21
2022-09-13T10:00:01.848Z,20.27
2022-09-13T10:01:01.868Z,20.30
2022-09-13T10:02:01.953Z,20.35
2022-09-13T10:03:01.794Z,20.56
2022-09-13T10:04:01.777Z,20.65
2022-09-13T10:05:01.762Z,20.58
2022-09-13T10:06:01.753Z,20.56
2022-09-13T10:07:01.729Z,20.79
2022-09-13T10:08:01.723Z,20.91
2022-09-13T10:09:01.709Z,21.11
2022-09-13T10:10:01.683Z,21.20
2022-09-13T10:11:01.674Z,21.27
2022-09-13T10:12:01.665Z,21.27
2022-09-13T10:13:01.644Z,21.20
2022-09-13T10:14:01.626Z,21.27
2022-09-13T10:15:01.618Z,21.34
2022-09-13T10:16:01.596Z,21.44
2022-09-13T10:17:01.655Z,21.36
2022-09-13T10:18:01.573Z,21.35
2022-09-13T10:19:01.560Z,21.32
2022-09-13T10:20:01.609Z,21.19
2022-09-13T10:21:01.524Z,21.17
2022-09-13T10:22:01.510Z,21.17
2022-09-13T10:23:01.496Z,21.13
2022-09-13T10:24:01.488Z,21.09
2022-09-13T10:25:01.481Z,21.17
2022-09-13T10:26:01.454Z,21.19
2022-09-13T10:27:01.447Z,21.29
2022-09-13T10:28:01.444Z,21.35
2022-09-13T10:29:01.419Z,21.29
2022-09-13T10:30:01.402Z,21.42
2022-09-13T10:31:01.466Z,21.36
2022-09-13T10:32:01.367Z,21.46
2022-09-13T10:33:01.354Z,21.61
2022-09-13T10:34:01.338Z,21.61
2022-09-13T10:35:01.321Z,21.72
2022-09-13T10:36:01.307Z,21.74
2022-09-13T10:37:01.301Z,21.85
2022-09-13T10:38:01.277Z,21.83
2022-09-13T10:39:01.272Z,21.78
2022-09-13T10:40:01.301Z,21.97
2022-09-13T10:41:01.249Z,21.97
2022-09-13T10:42:01.223Z,21.97
2022-09-13T10:43:01.209Z,22.07
2022-09-13T10:44:01.200Z,22.10
2022-09-13T10:45:01.186Z,22.09
2022-09-13T10:46:01.204Z,22.13
2022-09-13T10:47:01.153Z,22.14
2022-09-13T10:48:01.145Z,22.07
2022-09-13T10:49:01.141Z,22.06
2022-09-13T10:50:01.112Z,22.06
2022-09-13T10:51:01.102Z,21.92
2022-09-13T10:52:01.090Z,22.04
2022-09-13T10:53:01.072Z,22.09
2022-09-13T10:54:01.061Z,22.04
2022-09-13T10:55:01.047Z,21.94
2022-09-13T10:56:01.030Z,21.94
2022-09-13T10:57:01.017Z,21.91
2022-09-13T10:58:01.007Z,21.83
2022-09-13T10:59:00.991Z,21.95
2022-09-13T11:00:01.011Z,21.83
2022-09-13T11:01:01.048Z,21.90
2022-09-13T11:02:00.951Z,21.91
2022-09-13T11:03:00.949Z,21.97
2022-09-13T11:04:00.959Z,22.07
2022-09-13T11:05:00.913Z,21.99
2022-09-13T11:06:00.895Z,22.10
2022-09-13T11:07:02.058Z,22.06
2022-09-13T11:08:00.877Z,22.12
2022-09-13T11:09:00.871Z,22.34
2022-09-13T11:10:00.851Z,22.34
2022-09-13T11:11:00.829Z,22.43
2022-09-13T11:12:00.816Z,22.53
2022-09-13T11:13:00.797Z,22.64
2022-09-13T11:14:00.784Z,22.78
2022-09-13T11:15:00.771Z,22.87
2022-09-13T11:16:00.769Z,22.87
2022-09-13T11:17:00.818Z,23.01
2022-09-13T11:18:00.743Z,22.97
2022-09-13T11:19:00.723Z,22.87
2022-09-13T11:20:00.708Z,22.94
2022-09-13T11:21:00.699Z,22.90
2022-09-13T11:22:00.686Z,23.07
2022-09-13T11:23:00.670Z,23.09
2022-09-13T11:24:00.658Z,23.20
2022-09-13T11:25:00.652Z,23.23
2022-09-13T11:26:00.645Z,23.22
2022-09-13T11:27:00.619Z,23.24
2022-09-13T11:28:00.606Z,23.26
2022-09-13T11:29:00.600Z,23.17
2022-09-13T11:30:00.594Z,23.22
2022-09-13T11:31:00.562Z,23.22
2022-09-13T11:32:01.394Z,23.20
2022-09-13T11:33:00.543Z,23.34
2022-09-13T11:34:00.532Z,23.29
2022-09-13T11:35:00.520Z,23.11
2022-09-13T11:36:00.516Z,23.14
2022-09-13T11:37:00.493Z,23.20
2022-09-13T11:38:00.483Z,23.22
2022-09-13T11:39:00.466Z,23.12
2022-09-13T11:40:00.510Z,23.08
2022-09-13T11:41:00.439Z,23.11
2022-09-13T11:42:00.428Z,23.12
2022-09-13T11:43:00.414Z,23.14
2022-09-13T11:44:00.407Z,23.09
2022-09-13T11:45:00.387Z,23.11
2022-09-13T11:46:00.528Z,23.15
2022-09-13T11:47:00.367Z,23.17
2022-09-13T11:48:00.351Z,23.20
2022-09-13T11:49:00.351Z,23.27
2022-09-13T11:50:00.344Z,23.23
2022-09-13T11:51:00.322Z,23.23
2022-09-13T11:52:00.302Z,23.11
2022-09-13T11:53:00.285Z,23.09
2022-09-13T11:54:00.274Z,23.07
2022-09-13T11:55:00.269Z,23.07
2022-09-13T11:56:00.271Z,22.94
2022-09-13T11:57:00.229Z,22.96
2022-09-13T11:58:00.226Z,22.84
2022-09-13T11:59:00.216Z,22.74
2022-09-13T12:00:00.192Z,22.64
2022-09-13T12:01:00.180Z,22.59
2022-09-13T12:02:00.334Z,22.60
2022-09-13T12:03:00.259Z,22.59
2022-09-13T12:04:00.155Z,22.49
2022-09-13T12:05:21.124Z,22.47
2022-09-13T12:06:00.122Z,22.38
2022-09-13T12:07:00.095Z,22.32
2022-09-13T12:08:00.098Z,22.37
2022-09-13T12:09:00.088Z,22.02
2022-09-13T12:10:00.057Z,21.97
2022-09-13T12:11:00.059Z,22.01
2022-09-13T12:12:00.029Z,21.75
2022-09-13T12:13:00.013Z,21.56
2022-09-13T12:13:59.996Z,21.36
2022-09-13T12:14:59.984Z,21.39
2022-09-13T12:15:59.997Z,21.39
2022-09-13T12:17:00.020Z,21.41
2022-09-13T12:17:59.948Z,21.30
2022-09-13T12:18:59.931Z,21.35
2022-09-13T12:19:59.919Z,21.32
2022-09-13T12:20:59.904Z,21.42
2022-09-13T12:21:59.893Z,21.50
2022-09-13T12:22:59.872Z,21.44
2022-09-13T12:23:59.870Z,21.51
2022-09-13T12:24:59.847Z,21.51
2022-09-13T12:25:59.832Z,21.50
2022-09-13T12:26:59.826Z,21.63
2022-09-13T12:27:59.803Z,21.63
2022-09-13T12:28:59.787Z,21.50
2022-09-13T12:29:59.773Z,21.45
2022-09-13T12:30:59.764Z,21.41
2022-09-13T12:31:59.788Z,21.44
2022-09-13T12:32:59.723Z,21.50
2022-09-13T12:33:59.757Z,21.60
2022-09-13T12:34:59.705Z,21.67
2022-09-13T12:35:59.689Z,21.78
2022-09-13T12:36:59.680Z,21.91
2022-09-13T12:37:59.659Z,22.06
2022-09-13T12:38:59.671Z,22.10
2022-09-13T12:39:59.683Z,22.14
2022-09-13T12:40:59.610Z,22.22
2022-09-13T12:41:59.598Z,22.22
2022-09-13T12:42:59.627Z,22.10
2022-09-13T12:43:59.582Z,22.28
2022-09-13T12:44:59.607Z,22.23
2022-09-13T12:45:59.643Z,22.19
2022-09-13T12:46:59.536Z,22.13
2022-09-13T12:47:59.514Z,22.10
2022-09-13T12:48:59.501Z,22.14
2022-09-13T12:50:15.112Z,22.12
2022-09-13T12:50:59.471Z,22.12
2022-09-13T12:51:59.462Z,22.09